Time;durP1;ratioP1;P1;durP2;ratioP2;P2;SDS_P1;SDS_P2;PMS_P1;PMS_P2;Temp;Humidity;BMP_temperature;BMP_pressure;BME280_temperature;BME280_humidity;BME280_pressure;Samples;Min_cycle;Max_cycle;Signal;HPM_P1;HPM_P2
2022/08/27 00:00:03;;;;;;;6.15;5.10;;;19.80;99.90;;;;;;4970695;28;20035;-75
2022/08/27 00:02:29;;;;;;;9.85;5.15;;;19.80;99.90;;;;;;4972779;28;20113;-75
2022/08/27 00:04:55;;;;;;;8.73;5.28;;;19.80;99.90;;;;;;4973940;28;20458;-75
2022/08/27 00:07:20;;;;;;;10.18;6.18;;;19.80;99.90;;;;;;4973798;28;20030;-75
2022/08/27 00:09:46;;;;;;;8.27;5.38;;;19.80;99.90;;;;;;4973304;28;20019;-74
2022/08/27 00:12:12;;;;;;;11.55;5.68;;;19.80;99.90;;;;;;4974019;28;20034;-73
2022/08/27 00:14:38;;;;;;;9.18;5.15;;;19.80;99.90;;;;;;4973900;28;20391;-73
2022/08/27 00:17:05;;;;;;;8.60;6.07;;;19.80;99.90;;;;;;4973894;28;20022;-74
2022/08/27 00:19:31;;;;;;;7.82;5.63;;;19.80;99.90;;;;;;4988609;28;20061;-74
2022/08/27 00:21:57;;;;;;;9.40;5.50;;;19.80;99.90;;;;;;4986552;28;20483;-75
2022/08/27 00:24:23;;;;;;;7.53;5.15;;;19.80;99.90;;;;;;4985056;28;20027;-75
2022/08/27 00:26:52;;;;;;;7.20;5.68;;;19.80;99.90;;;;;;4971493;28;20045;-75
2022/08/27 00:29:18;;;;;;;7.03;5.50;;;19.80;99.90;;;;;;4963020;28;20062;-75
2022/08/27 00:31:43;;;;;;;9.10;5.80;;;19.80;99.90;;;;;;4984570;28;20055;-75
2022/08/27 00:34:09;;;;;;;10.32;6.35;;;19.80;99.90;;;;;;4970995;28;20594;-75
2022/08/27 00:36:35;;;;;;;7.80;5.47;;;19.80;99.90;;;;;;4983407;28;20364;-76
2022/08/27 00:39:01;;;;;;;7.93;5.68;;;19.80;99.90;;;;;;4979699;28;20118;-76
2022/08/27 00:41:27;;;;;;;10.10;5.45;;;19.80;99.90;;;;;;4967199;28;20113;-76
2022/08/27 00:43:56;;;;;;;8.75;5.55;;;19.90;99.90;;;;;;4970335;28;20039;-76
2022/08/27 00:46:37;;;;;;;7.60;5.47;;;19.90;99.90;;;;;;4973186;28;20034;-75
2022/08/27 00:49:14;;;;;;;10.75;5.60;;;19.90;99.90;;;;;;4986660;28;20030;-76
2022/08/27 00:51:40;;;;;;;9.20;5.50;;;19.90;99.90;;;;;;4970261;28;20019;-76
2022/08/27 00:54:08;;;;;;;8.93;5.30;;;19.80;99.90;;;;;;4970140;28;20647;-76
2022/08/27 00:56:43;;;;;;;9.10;5.30;;;19.80;99.90;;;;;;4982389;28;20035;-76
2022/08/27 00:59:14;;;;;;;10.05;5.55;;;19.80;99.90;;;;;;4968336;28;20027;-76
2022/08/27 01:02:17;;;;;;;10.27;6.30;;;19.80;99.90;;;;;;4967932;28;20499;-76
2022/08/27 01:04:31;;;;;;;10.13;5.72;;;19.80;99.90;;;;;;4969663;28;20034;-74
2022/08/27 01:06:58;;;;;;;9.23;5.50;;;19.80;99.90;;;;;;4987989;28;20030;-74
2022/08/27 01:09:25;;;;;;;10.05;6.22;;;19.80;99.90;;;;;;4988071;28;20027;-74
2022/08/27 01:11:53;;;;;;;7.90;5.47;;;19.80;99.90;;;;;;4973178;28;20102;-74
2022/08/27 01:14:19;;;;;;;7.88;6.10;;;19.80;99.90;;;;;;4988044;28;20031;-74
2022/08/27 01:16:49;;;;;;;7.00;5.05;;;19.80;99.90;;;;;;4973311;28;20033;-74
2022/08/27 01:19:36;;;;;;;9.80;6.25;;;19.80;99.90;;;;;;4972114;28;20403;-75
2022/08/27 01:22:23;;;;;;;9.10;5.55;;;19.80;99.90;;;;;;4968346;28;20030;-76
2022/08/27 01:24:50;;;;;;;9.23;6.00;;;19.70;99.90;;;;;;4934063;28;20034;-75
2022/08/27 01:27:19;;;;;;;14.70;6.35;;;19.70;99.90;;;;;;4981791;28;20027;-75
2022/08/27 01:29:45;;;;;;;8.43;6.03;;;19.70;99.90;;;;;;4968421;28;20030;-75
2022/08/27 01:32:22;;;;;;;8.00;6.13;;;19.60;99.90;;;;;;4969505;28;20027;-75
2022/08/27 01:34:48;;;;;;;8.10;5.57;;;19.60;99.90;;;;;;4967222;28;20027;-75
2022/08/27 01:37:16;;;;;;;8.40;5.65;;;19.60;99.90;;;;;;4965955;28;20494;-75
2022/08/27 01:39:42;;;;;;;9.00;6.03;;;19.60;99.90;;;;;;4964240;28;20055;-75
2022/08/27 01:42:14;;;;;;;13.18;6.13;;;19.60;99.90;;;;;;4987158;28;20026;-75
2022/08/27 01:44:51;;;;;;;11.02;5.45;;;19.60;99.90;;;;;;4973996;28;20392;-75
2022/08/27 01:47:19;;;;;;;12.75;6.50;;;19.60;99.90;;;;;;4974277;28;20075;-75
2022/08/27 01:49:45;;;;;;;10.40;5.45;;;19.50;99.90;;;;;;4989989;28;20027;-76
2022/08/27 01:52:13;;;;;;;7.82;6.05;;;19.60;99.90;;;;;;4981683;28;20019;-75
2022/08/27 01:54:39;;;;;;;7.35;4.97;;;19.50;99.90;;;;;;4975438;28;20451;-76
2022/08/27 01:57:05;;;;;;;8.75;5.75;;;19.60;99.90;;;;;;4975807;28;20027;-75
2022/08/27 01:59:32;;;;;;;9.00;6.32;;;19.60;99.90;;;;;;4966383;28;20031;-75
2022/08/27 02:01:58;;;;;;;7.28;5.82;;;19.50;99.90;;;;;;4976273;28;20029;-75
2022/08/27 02:04:24;;;;;;;10.93;5.72;;;19.50;99.90;;;;;;4991293;28;20086;-75
2022/08/27 02:06:50;;;;;;;8.27;6.38;;;19.50;99.90;;;;;;4984526;28;20031;-75
2022/08/27 02:09:15;;;;;;;7.85;6.57;;;19.50;99.90;;;;;;4968633;28;20034;-75
2022/08/27 02:11:41;;;;;;;9.55;6.82;;;19.50;99.90;;;;;;4972316;28;20034;-75
2022/08/27 02:14:07;;;;;;;10.40;6.28;;;19.50;99.90;;;;;;4971188;28;20031;-75
2022/08/27 02:16:32;;;;;;;11.05;6.10;;;19.50;99.90;;;;;;4970618;28;20093;-76
2022/08/27 02:18:59;;;;;;;9.70;6.60;;;19.50;99.90;;;;;;4968720;28;20059;-76
2022/08/27 02:21:25;;;;;;;9.73;7.05;;;19.50;99.90;;;;;;4969086;28;20027;-76
2022/08/27 02:23:53;;;;;;;16.20;9.18;;;19.50;99.90;;;;;;4971789;28;20041;-76
2022/08/27 02:26:18;;;;;;;10.38;7.32;;;19.40;99.90;;;;;;4972583;28;20550;-76
2022/08/27 02:28:44;;;;;;;8.07;6.30;;;19.40;99.90;;;;;;4970789;28;22026;-75
2022/08/27 02:31:09;;;;;;;13.50;7.32;;;19.40;99.90;;;;;;4987719;28;20169;-75
2022/08/27 02:33:35;;;;;;;14.30;8.27;;;19.40;99.90;;;;;;4966256;28;20054;-76
2022/08/27 02:36:01;;;;;;;13.00;7.30;;;19.40;99.90;;;;;;4972545;28;20033;-75
2022/08/27 02:38:27;;;;;;;11.23;7.15;;;19.40;99.90;;;;;;4970220;28;20049;-75
2022/08/27 02:40:52;;;;;;;10.70;7.72;;;19.40;99.90;;;;;;4970906;28;20499;-76
2022/08/27 02:43:18;;;;;;;10.00;7.10;;;19.40;99.90;;;;;;4969282;28;20507;-76
2022/08/27 02:45:44;;;;;;;10.27;7.78;;;19.40;99.90;;;;;;4972774;28;20448;-75
2022/08/27 02:48:09;;;;;;;9.52;6.97;;;19.40;99.90;;;;;;4973611;28;20057;-76
2022/08/27 02:50:35;;;;;;;12.23;7.10;;;19.40;99.90;;;;;;4975203;28;20042;-75
2022/08/27 02:53:03;;;;;;;9.00;7.07;;;19.40;99.90;;;;;;4974125;28;20361;-74
2022/08/27 02:55:29;;;;;;;13.20;7.55;;;19.40;99.90;;;;;;4973215;28;20031;-76
2022/08/27 02:57:55;;;;;;;10.25;6.65;;;19.40;99.90;;;;;;4970540;28;20053;-75
2022/08/27 03:00:23;;;;;;;10.15;6.63;;;19.40;99.90;;;;;;4971903;28;20492;-75
2022/08/27 03:02:49;;;;;;;10.65;7.47;;;19.40;99.90;;;;;;4968672;28;20023;-75
2022/08/27 03:05:16;;;;;;;11.23;7.30;;;19.40;99.90;;;;;;4969473;28;20027;-75
2022/08/27 03:07:42;;;;;;;11.70;7.18;;;19.40;99.90;;;;;;4968094;28;20042;-75
2022/08/27 03:10:09;;;;;;;11.20;6.78;;;19.40;99.90;;;;;;4968698;28;20094;-75
2022/08/27 03:12:35;;;;;;;9.27;7.20;;;19.40;99.90;;;;;;4983900;28;20606;-75
2022/08/27 03:15:06;;;;;;;9.40;6.80;;;19.40;99.90;;;;;;4969776;28;20050;-76
2022/08/27 03:20:16;;;;;;;;;;;19.40;99.90;;;;;;4973027;28;20582;-76
2022/08/27 03:22:42;;;;;;;14.63;9.43;;;19.40;99.90;;;;;;4974732;28;20045;-75
2022/08/27 03:25:09;;;;;;;14.60;10.10;;;19.40;99.90;;;;;;4973843;28;20101;-76
2022/08/27 03:27:35;;;;;;;16.40;9.73;;;19.40;99.90;;;;;;4973100;28;20023;-75
2022/08/27 03:30:03;;;;;;;13.45;10.02;;;19.40;99.90;;;;;;4972034;28;20503;-76
2022/08/27 03:32:28;;;;;;;17.75;10.35;;;19.40;99.90;;;;;;4969160;28;20039;-75
2022/08/27 03:34:57;;;;;;;15.38;11.45;;;19.40;99.90;;;;;;4970408;28;20026;-75
2022/08/27 03:37:23;;;;;;;15.30;11.23;;;19.40;99.90;;;;;;4969149;28;20138;-75
2022/08/27 03:39:48;;;;;;;17.63;11.55;;;19.40;99.90;;;;;;4966797;28;20109;-75
2022/08/27 03:42:14;;;;;;;17.77;12.68;;;19.30;99.90;;;;;;4968410;28;20023;-75
2022/08/27 03:44:40;;;;;;;23.83;12.38;;;19.40;99.90;;;;;;4968522;28;20050;-75
2022/08/27 03:47:05;;;;;;;19.75;12.95;;;19.40;99.90;;;;;;4968005;28;20035;-76
2022/08/27 03:49:31;;;;;;;16.77;11.30;;;19.30;99.90;;;;;;4967244;28;20026;-76
2022/08/27 03:51:57;;;;;;;15.85;10.77;;;19.40;99.90;;;;;;4971281;28;20110;-76
2022/08/27 03:54:24;;;;;;;16.95;11.55;;;19.30;99.90;;;;;;4969468;28;20058;-75
2022/08/27 03:56:50;;;;;;;14.02;10.23;;;19.30;99.90;;;;;;4964292;28;20022;-74
2022/08/27 03:59:15;;;;;;;15.60;10.75;;;19.30;99.90;;;;;;4967855;28;20034;-75
2022/08/27 04:01:42;;;;;;;15.52;11.10;;;19.30;99.90;;;;;;4983775;28;20034;-75
2022/08/27 04:04:08;;;;;;;19.15;10.77;;;19.30;99.90;;;;;;4968224;28;20027;-75
2022/08/27 04:06:35;;;;;;;14.57;10.20;;;19.30;99.90;;;;;;4968900;28;20498;-75
2022/08/27 04:09:01;;;;;;;18.13;10.95;;;19.30;99.90;;;;;;4966137;28;20019;-75
2022/08/27 04:11:28;;;;;;;17.48;11.25;;;19.30;99.90;;;;;;4967561;28;20046;-75
2022/08/27 04:13:54;;;;;;;17.70;10.80;;;19.30;99.90;;;;;;4967801;28;20395;-76
2022/08/27 04:16:20;;;;;;;19.85;12.00;;;19.30;99.90;;;;;;4966759;28;20469;-76
2022/08/27 04:18:45;;;;;;;15.57;10.48;;;19.30;99.90;;;;;;4971096;28;20046;-75
2022/08/27 04:21:12;;;;;;;16.95;10.90;;;19.30;99.90;;;;;;4972386;28;20023;-76
2022/08/27 04:23:40;;;;;;;15.23;12.07;;;19.30;99.90;;;;;;4967784;28;20037;-76
2022/08/27 04:26:07;;;;;;;17.85;11.00;;;19.30;99.90;;;;;;4967801;28;20031;-76
2022/08/27 04:28:33;;;;;;;17.35;11.88;;;19.40;99.90;;;;;;4967880;28;20049;-76
2022/08/27 04:31:00;;;;;;;15.48;10.70;;;19.30;99.90;;;;;;4966211;28;20027;-76
2022/08/27 04:33:26;;;;;;;22.52;12.77;;;19.40;99.90;;;;;;4969271;28;20026;-76
2022/08/27 04:36:04;;;;;;;19.50;11.75;;;19.40;99.90;;;;;;4970503;28;20554;-76
2022/08/27 04:38:30;;;;;;;20.63;12.98;;;19.40;99.90;;;;;;4971832;28;20026;-76
2022/08/27 04:43:40;;;;;;;18.15;12.73;;;19.50;99.90;;;;;;4968541;28;20096;-77
2022/08/27 04:46:07;;;;;;;19.05;13.15;;;19.50;99.90;;;;;;4971304;28;20031;-75
2022/08/27 04:48:33;;;;;;;17.95;12.48;;;19.50;99.90;;;;;;4972547;28;20027;-76
2022/08/27 04:50:59;;;;;;;20.35;14.32;;;19.50;99.90;;;;;;4973270;28;20432;-75
2022/08/27 04:53:25;;;;;;;20.15;14.98;;;19.50;99.90;;;;;;4972543;28;20551;-76
2022/08/27 04:55:53;;;;;;;17.50;13.52;;;19.40;99.90;;;;;;4972891;28;20035;-75
2022/08/27 04:58:20;;;;;;;18.70;13.02;;;19.50;99.90;;;;;;4967425;28;20035;-75
2022/08/27 05:00:49;;;;;;;18.80;13.18;;;19.40;99.90;;;;;;4983411;28;20031;-76
2022/08/27 05:03:17;;;;;;;18.10;13.00;;;19.40;99.90;;;;;;4965984;28;20080;-74
2022/08/27 05:05:43;;;;;;;19.45;13.35;;;19.40;99.90;;;;;;4971073;28;20031;-77
2022/08/27 05:08:12;;;;;;;17.83;12.55;;;19.40;99.90;;;;;;4977973;28;20053;-76
2022/08/27 05:10:49;;;;;;;18.80;14.32;;;19.50;99.90;;;;;;4967481;28;20476;-75
2022/08/27 05:13:19;;;;;;;16.27;12.80;;;19.50;99.90;;;;;;4966222;28;20023;-75
2022/08/27 05:15:45;;;;;;;19.65;12.82;;;19.50;99.90;;;;;;4984674;28;20074;-75
2022/08/27 05:18:12;;;;;;;20.17;13.10;;;19.50;99.90;;;;;;4974338;28;20550;-75
2022/08/27 05:20:44;;;;;;;18.65;12.77;;;19.50;99.90;;;;;;4975300;28;20373;-76
2022/08/27 05:23:13;;;;;;;18.95;12.75;;;19.50;99.90;;;;;;4971655;28;20086;-76
2022/08/27 05:25:41;;;;;;;19.92;12.90;;;19.50;99.90;;;;;;4973874;28;20055;-77
2022/08/27 05:30:47;;;;;;;17.52;13.07;;;19.50;99.90;;;;;;4973708;28;20089;-78
2022/08/27 05:33:14;;;;;;;20.48;13.40;;;19.60;99.90;;;;;;4970675;28;20450;-78
2022/08/27 05:35:41;;;;;;;19.88;13.90;;;19.60;99.90;;;;;;4972477;28;20097;-78
2022/08/27 05:38:08;;;;;;;21.60;14.77;;;19.60;99.90;;;;;;4989971;28;20621;-77
2022/08/27 05:40:34;;;;;;;19.92;12.95;;;19.70;99.90;;;;;;4971209;28;20037;-77
2022/08/27 05:43:00;;;;;;;19.55;13.68;;;19.70;99.90;;;;;;4971730;28;20044;-77
2022/08/27 05:45:25;;;;;;;19.52;13.52;;;19.70;99.90;;;;;;4971592;28;20054;-77
2022/08/27 05:47:51;;;;;;;17.42;13.55;;;19.70;99.90;;;;;;4965823;28;20159;-86
2022/08/27 05:50:17;;;;;;;22.42;13.43;;;19.70;99.90;;;;;;4973690;28;20027;-81
2022/08/27 05:52:42;;;;;;;17.70;13.00;;;19.70;99.90;;;;;;4974278;28;20035;-81
2022/08/27 05:55:08;;;;;;;18.88;13.30;;;19.80;99.90;;;;;;4974766;28;20031;-80
2022/08/27 05:57:34;;;;;;;20.35;13.48;;;19.80;99.90;;;;;;4981637;28;20022;-81
2022/08/27 06:02:45;;;;;;;17.80;13.00;;;19.80;99.90;;;;;;4973869;28;20115;-83
2022/08/27 06:05:11;;;;;;;19.42;13.48;;;19.90;99.90;;;;;;4968569;28;20372;-81
2022/08/27 06:07:36;;;;;;;16.05;12.30;;;19.90;99.90;;;;;;4973032;28;20037;-83
2022/08/27 06:10:06;;;;;;;19.30;13.65;;;20.00;99.90;;;;;;4973733;28;20095;-83
2022/08/27 06:12:33;;;;;;;18.58;13.45;;;20.00;99.90;;;;;;4983798;28;20487;-83
2022/08/27 06:14:59;;;;;;;17.20;12.73;;;20.00;99.90;;;;;;4971830;28;20033;-83
2022/08/27 06:17:25;;;;;;;19.88;13.23;;;20.10;99.90;;;;;;4974033;28;20482;-83
2022/08/27 06:19:50;;;;;;;17.15;12.90;;;20.10;99.90;;;;;;4986894;28;20039;-83
2022/08/27 06:22:16;;;;;;;18.58;13.40;;;20.10;99.90;;;;;;4991553;28;20026;-84
2022/08/27 06:24:42;;;;;;;21.20;13.60;;;20.20;99.90;;;;;;4967472;28;20034;-84
2022/08/27 06:27:14;;;;;;;20.92;14.25;;;20.20;99.90;;;;;;4979888;28;20030;-83
2022/08/27 06:29:41;;;;;;;21.08;14.52;;;20.30;99.90;;;;;;4990099;28;20026;-87
2022/08/27 06:32:08;;;;;;;19.63;14.55;;;20.30;99.90;;;;;;4967649;28;20077;-83
2022/08/27 06:34:35;;;;;;;22.08;15.82;;;20.30;99.90;;;;;;4967415;28;20029;-82
2022/08/27 06:37:01;;;;;;;20.55;14.73;;;20.40;99.90;;;;;;4964894;28;20065;-83
2022/08/27 06:39:27;;;;;;;20.48;15.25;;;20.40;99.90;;;;;;4966955;28;20414;-83
2022/08/27 06:41:53;;;;;;;23.40;16.52;;;20.50;99.90;;;;;;4971989;28;20038;-83
2022/08/27 06:44:19;;;;;;;20.60;15.63;;;20.50;99.90;;;;;;4971799;28;20034;-83
2022/08/27 06:46:46;;;;;;;22.08;15.75;;;20.50;99.90;;;;;;4961705;28;20027;-83
2022/08/27 06:49:12;;;;;;;24.27;16.55;;;20.50;99.90;;;;;;4962919;28;20035;-87
2022/08/27 06:51:42;;;;;;;24.80;17.45;;;20.60;99.90;;;;;;4971464;28;20039;-90
2022/08/27 06:54:10;;;;;;;25.88;16.80;;;20.60;99.90;;;;;;4973633;28;20033;-89
2022/08/27 06:56:36;;;;;;;22.30;16.13;;;20.60;99.90;;;;;;4989976;28;20042;-90
2022/08/27 06:59:06;;;;;;;20.58;14.23;;;20.60;99.90;;;;;;4979085;28;20085;-90
2022/08/27 07:01:38;;;;;;;21.67;14.55;;;20.60;99.90;;;;;;4990948;28;20062;-90
2022/08/27 07:04:09;;;;;;;21.48;15.48;;;20.60;99.90;;;;;;4990592;28;20113;-89
2022/08/27 07:06:37;;;;;;;24.10;16.50;;;20.60;99.90;;;;;;4988043;28;20030;-89
2022/08/27 07:09:04;;;;;;;20.20;16.23;;;20.60;99.90;;;;;;4976723;28;20517;-87
2022/08/27 07:11:32;;;;;;;25.65;16.02;;;20.70;99.90;;;;;;4963361;28;20514;-89
2022/08/27 07:13:58;;;;;;;21.50;15.98;;;20.70;99.90;;;;;;4973423;28;20026;-89
2022/08/27 07:16:26;;;;;;;23.85;16.40;;;20.70;99.90;;;;;;4984529;28;20022;-89
2022/08/27 07:18:55;;;;;;;23.98;15.48;;;20.70;99.90;;;;;;4972229;28;20097;-89
2022/08/27 07:21:21;;;;;;;22.58;15.82;;;20.80;99.90;;;;;;4971378;28;20109;-89
2022/08/27 07:27:31;;;;;;;19.88;15.23;;;20.80;99.90;;;;;;4920889;28;20039;-90
2022/08/27 07:29:58;;;;;;;24.58;17.73;;;20.90;99.90;;;;;;4929589;29;20031;-89
2022/08/27 07:32:34;;;;;;;;;;;;;;;;;;;;;
2022/08/27 07:34:59;;;;;;;28.20;20.17;;;20.90;99.90;;;;;;4974749;28;20030;-90
2022/08/27 07:37:28;;;;;;;26.88;19.08;;;21.00;99.90;;;;;;4989495;28;20571;-89
2022/08/27 07:39:54;;;;;;;26.40;18.73;;;21.00;99.90;;;;;;4959715;28;20475;-89
2022/08/27 07:45:04;;;;;;;31.38;21.35;;;21.10;99.90;;;;;;4964903;28;20033;-89
2022/08/27 07:47:30;;;;;;;24.85;19.30;;;21.10;99.90;;;;;;4961220;28;20043;-90
2022/08/27 07:50:00;;;;;;;25.17;19.15;;;21.00;99.90;;;;;;4973183;28;20070;-92
2022/08/27 07:52:26;;;;;;;27.25;19.15;;;21.10;99.90;;;;;;4987448;28;20035;-90
2022/08/27 07:54:53;;;;;;;29.88;19.58;;;21.10;99.90;;;;;;4984470;28;20507;-90
2022/08/27 07:57:21;;;;;;;34.67;21.85;;;21.10;99.90;;;;;;4984791;28;20027;-90
2022/08/27 07:59:47;;;;;;;29.42;20.02;;;21.10;99.90;;;;;;4965095;28;20073;-89
2022/08/27 08:02:14;;;;;;;26.42;20.83;;;21.10;99.90;;;;;;4966565;28;20058;-89
2022/08/27 08:04:40;;;;;;;28.23;21.10;;;21.10;99.90;;;;;;4970408;28;20483;-89
2022/08/27 08:07:08;;;;;;;30.40;22.20;;;21.10;99.90;;;;;;4968669;28;20026;-89
2022/08/27 08:09:34;;;;;;;30.67;20.70;;;21.00;99.90;;;;;;4982979;28;20081;-89
2022/08/27 08:11:59;;;;;;;36.83;21.65;;;21.00;99.90;;;;;;4967978;28;20039;-89
2022/08/27 08:14:27;;;;;;;29.08;20.40;;;21.10;99.90;;;;;;4991673;28;20123;-89
2022/08/27 08:16:57;;;;;;;28.27;19.60;;;21.10;99.90;;;;;;4992197;28;20031;-90
2022/08/27 08:19:26;;;;;;;31.00;21.30;;;21.10;99.90;;;;;;4972139;28;20035;-88
2022/08/27 08:21:54;;;;;;;31.73;22.58;;;21.10;99.90;;;;;;4970357;28;20043;-88
2022/08/27 08:24:20;;;;;;;32.58;24.10;;;21.20;99.90;;;;;;4967944;28;20035;-89
2022/08/27 08:26:46;;;;;;;35.45;23.10;;;21.00;99.90;;;;;;4973476;28;20039;-89
2022/08/27 08:29:12;;;;;;;41.25;25.98;;;21.00;99.90;;;;;;4966718;28;20480;-89
2022/08/27 08:31:40;;;;;;;34.83;24.23;;;20.90;99.90;;;;;;4972145;28;20479;-89
2022/08/27 08:34:06;;;;;;;37.65;23.50;;;20.90;99.90;;;;;;4980360;28;20031;-89
2022/08/27 08:36:32;;;;;;;35.05;22.65;;;21.00;99.90;;;;;;4961784;28;20031;-89
2022/08/27 08:39:00;;;;;;;34.13;23.58;;;20.90;99.90;;;;;;4968157;28;20034;-88
2022/08/27 08:41:36;;;;;;;32.92;21.67;;;20.90;99.90;;;;;;4970006;28;20034;-89
2022/08/27 08:44:12;;;;;;;30.20;21.65;;;21.00;99.90;;;;;;4963503;28;20039;-89
2022/08/27 08:47:15;;;;;;;34.15;24.42;;;21.00;99.90;;;;;;4967650;28;20105;-90
2022/08/27 08:49:47;;;;;;;34.47;23.25;;;21.00;99.90;;;;;;4970835;28;20483;-89
2022/08/27 08:52:28;;;;;;;33.85;22.83;;;20.90;99.90;;;;;;4968615;28;20027;-89
2022/08/27 08:55:13;;;;;;;38.58;24.85;;;20.90;99.90;;;;;;4972446;28;20109;-89
2022/08/27 08:57:48;;;;;;;35.33;23.85;;;20.90;99.90;;;;;;4971256;28;20029;-88
2022/08/27 09:00:14;;;;;;;39.90;25.65;;;20.80;99.90;;;;;;4967824;28;20045;-89
2022/08/27 09:02:53;;;;;;;32.95;23.98;;;20.80;99.90;;;;;;4967612;28;20023;-89
2022/08/27 09:05:20;;;;;;;39.63;25.60;;;20.80;99.90;;;;;;4978619;28;20035;-89
2022/08/27 09:07:48;;;;;;;40.08;25.20;;;20.80;99.90;;;;;;4966635;28;20075;-89
2022/08/27 09:10:32;;;;;;;37.72;25.15;;;20.70;99.90;;;;;;4988548;28;20106;-89
2022/08/27 09:13:02;;;;;;;34.13;24.23;;;20.70;99.90;;;;;;4974873;28;20864;-90
2022/08/27 09:15:32;;;;;;;38.65;25.45;;;20.70;99.90;;;;;;4979973;28;20420;-90
2022/08/27 09:18:10;;;;;;;37.35;26.23;;;20.70;99.90;;;;;;4974168;28;20487;-90
2022/08/27 09:20:37;;;;;;;37.97;25.40;;;20.60;99.90;;;;;;4998456;28;20023;-90
2022/08/27 09:23:17;;;;;;;39.28;25.48;;;20.60;99.90;;;;;;4995432;28;20023;-89
2022/08/27 09:25:43;;;;;;;43.28;25.45;;;20.60;99.90;;;;;;4970730;28;20030;-88
2022/08/27 09:31:19;;;;;;;35.00;26.63;;;20.40;99.90;;;;;;4975660;28;20049;-91
2022/08/27 09:33:45;;;;;;;43.85;28.52;;;20.40;99.90;;;;;;4989705;28;20022;-90
2022/08/27 09:36:19;;;;;;;39.58;28.40;;;20.30;99.90;;;;;;4970915;28;20035;-90
2022/08/27 09:38:56;;;;;;;42.60;27.92;;;20.40;99.90;;;;;;4969376;28;20080;-90
2022/08/27 09:41:28;;;;;;;40.45;28.08;;;20.30;99.90;;;;;;4969766;28;20026;-94
2022/08/27 09:44:06;;;;;;;44.80;29.95;;;20.30;99.90;;;;;;4983220;28;20027;-91
2022/08/27 09:46:32;;;;;;;43.63;28.65;;;20.30;99.90;;;;;;4970132;28;20039;-93
2022/08/27 09:49:49;;;;;;;36.90;25.67;;;20.20;99.90;;;;;;4982016;28;20018;-95
2022/08/27 09:52:37;;;;;;;43.45;28.50;;;20.20;99.90;;;;;;4973130;28;20491;-94
2022/08/27 09:55:06;;;;;;;43.70;28.77;;;20.10;99.90;;;;;;4971001;28;20023;-94
2022/08/27 09:57:39;;;;;;;48.03;30.60;;;20.10;99.90;;;;;;4976080;28;20052;-94
2022/08/27 10:00:15;;;;;;;40.42;30.48;;;20.10;99.90;;;;;;4967194;28;20033;-92
2022/08/27 10:02:51;;;;;;;44.70;28.90;;;20.10;99.90;;;;;;4989602;28;20042;-87
2022/08/27 10:05:29;;;;;;;48.22;30.58;;;20.00;99.90;;;;;;4972357;28;20078;-91
2022/08/27 10:08:09;;;;;;;42.75;30.38;;;20.00;99.90;;;;;;4987276;28;20423;-89
2022/08/27 10:10:42;;;;;;;47.15;32.60;;;20.00;99.90;;;;;;4978110;28;20435;-88
2022/08/27 10:13:22;;;;;;;49.42;32.97;;;20.00;99.90;;;;;;4986048;28;20028;-86
2022/08/27 10:16:35;;;;;;;53.75;34.40;;;20.00;99.90;;;;;;4973080;28;20031;-86
2022/08/27 10:19:29;;;;;;;48.92;33.50;;;20.10;99.90;;;;;;4971929;28;20030;-87
2022/08/27 10:21:59;;;;;;;;;;;20.10;99.90;;;;;;4977459;28;20061;-88
2022/08/27 10:24:54;;;;;;;46.10;32.22;;;20.20;99.90;;;;;;4969683;28;19917;-89
2022/08/27 10:27:50;;;;;;;52.72;34.97;;;20.20;99.90;;;;;;4974605;28;20041;-86
2022/08/27 10:30:20;;;;;;;50.53;33.75;;;20.20;99.90;;;;;;4986697;28;20077;-86
2022/08/27 10:33:05;;;;;;;51.03;33.17;;;20.20;99.90;;;;;;4974581;28;20038;-88
2022/08/27 10:35:56;;;;;;;46.95;31.00;;;20.20;99.90;;;;;;4981379;28;20071;-88
2022/08/27 10:38:36;;;;;;;49.15;33.28;;;20.20;99.90;;;;;;4986272;28;20023;-86
2022/08/27 10:41:30;;;;;;;51.50;34.17;;;20.20;99.90;;;;;;4994966;28;20022;-87
2022/08/27 10:44:07;;;;;;;50.75;33.75;;;20.10;99.90;;;;;;4981401;28;20042;-86
2022/08/27 10:47:00;;;;;;;45.40;33.03;;;20.20;99.90;;;;;;4983671;28;20038;-87
2022/08/27 10:49:41;;;;;;;49.72;34.67;;;20.10;99.90;;;;;;5001983;28;20057;-88
2022/08/27 10:52:34;;;;;;;44.65;30.65;;;20.10;99.90;;;;;;4987986;28;20026;-87
2022/08/27 10:55:26;;;;;;;47.50;30.88;;;20.10;99.90;;;;;;4962536;28;20755;-87
2022/08/27 10:58:07;;;;;;;42.72;30.25;;;20.00;99.90;;;;;;4981243;28;20034;-86
2022/08/27 11:00:54;;;;;;;49.78;32.22;;;20.00;99.90;;;;;;4977715;28;20038;-86
2022/08/27 11:04:01;;;;;;;46.20;30.50;;;20.10;99.90;;;;;;4968283;28;20042;-87
2022/08/27 11:06:30;;;;;;;47.05;30.70;;;20.10;99.90;;;;;;4970073;28;20057;-87
2022/08/27 11:09:10;;;;;;;40.67;28.55;;;20.10;99.90;;;;;;4969911;28;20026;-90
2022/08/27 11:11:41;;;;;;;42.13;28.33;;;20.10;99.90;;;;;;4969702;28;20434;-87
2022/08/27 11:14:18;;;;;;;43.15;29.15;;;20.10;99.90;;;;;;4967914;28;20019;-86
2022/08/27 11:16:50;;;;;;;48.10;32.47;;;20.10;99.90;;;;;;4972258;28;20492;-89
2022/08/27 11:19:25;;;;;;;36.97;26.75;;;20.20;99.90;;;;;;4987902;28;20115;-86
2022/08/27 11:22:22;;;;;;;43.20;28.60;;;20.20;99.90;;;;;;4971533;28;20033;-88
2022/08/27 11:25:01;;;;;;;32.72;22.85;;;20.20;99.90;;;;;;4970391;28;20069;-88
2022/08/27 11:30:23;;;;;;;38.47;25.87;;;20.20;99.90;;;;;;4931948;28;20048;-74
2022/08/27 11:33:15;;;;;;;36.53;25.30;;;20.20;99.90;;;;;;4934752;28;20092;-73
2022/08/27 11:36:15;;;;;;;35.05;23.20;;;20.20;99.90;;;;;;4947422;28;20035;-73
2022/08/27 11:38:58;;;;;;;34.22;24.08;;;20.20;99.90;;;;;;4955445;28;20373;-72
2022/08/27 11:41:43;;;;;;;35.90;23.38;;;20.20;99.90;;;;;;4949542;28;20043;-73
2022/08/27 11:44:09;;;;;;;42.65;27.40;;;20.20;99.90;;;;;;4954260;28;20031;-73
2022/08/27 11:46:47;;;;;;;41.55;27.63;;;20.10;99.90;;;;;;4952707;28;20035;-73
2022/08/27 11:49:45;;;;;;;34.28;23.05;;;20.10;99.90;;;;;;4956559;28;20031;-74
2022/08/27 11:52:18;;;;;;;32.90;22.00;;;20.10;99.90;;;;;;4936914;29;20034;-73
2022/08/27 11:54:46;;;;;;;;;;;20.10;99.90;;;;;;4954654;29;20024;-73
2022/08/27 11:57:25;;;;;;;25.58;19.75;;;20.10;99.90;;;;;;4958653;28;19910;-73
2022/08/27 11:59:51;;;;;;;25.40;17.65;;;20.20;99.90;;;;;;4964218;28;20034;-73
2022/08/27 12:02:26;;;;;;;21.27;15.40;;;20.20;99.90;;;;;;4962478;28;20033;-73
2022/08/27 12:04:56;;;;;;;28.83;14.75;;;20.20;99.90;;;;;;4957919;28;20036;-73
2022/08/27 12:07:34;;;;;;;20.98;15.65;;;20.20;99.90;;;;;;4952537;28;20023;-73
2022/08/27 12:10:06;;;;;;;22.25;14.77;;;20.10;99.90;;;;;;4956315;28;20466;-73
2022/08/27 12:12:43;;;;;;;21.35;15.38;;;20.20;99.90;;;;;;4952164;28;20118;-73
2022/08/27 12:15:30;;;;;;;16.48;12.95;;;20.20;99.90;;;;;;4959411;28;20023;-73
2022/08/27 12:18:17;;;;;;;16.45;12.98;;;20.30;99.90;;;;;;4956586;28;20027;-73
2022/08/27 12:20:52;;;;;;;17.58;11.75;;;20.40;99.90;;;;;;4953283;28;20031;-73
2022/08/27 12:23:40;;;;;;;19.42;13.13;;;20.40;99.90;;;;;;4953952;28;20186;-72
2022/08/27 12:26:24;;;;;;;17.60;13.23;;;20.50;99.90;;;;;;4960029;28;20062;-73
2022/08/27 12:29:17;;;;;;;16.25;11.65;;;20.70;99.90;;;;;;4953364;28;20090;-72
2022/08/27 12:31:47;;;;;;;17.03;12.00;;;20.60;99.90;;;;;;4931881;29;20024;-73
2022/08/27 12:34:19;;;;;;;14.82;11.55;;;20.70;99.90;;;;;;4955279;28;20035;-73
2022/08/27 12:36:48;;;;;;;13.55;10.98;;;20.70;99.90;;;;;;4940871;29;20476;-73
2022/08/27 12:39:17;;;;;;;13.77;10.50;;;20.70;99.90;;;;;;4945421;29;20069;-73
2022/08/27 12:41:48;;;;;;;15.43;9.93;;;20.70;99.90;;;;;;4955263;28;20035;-73
2022/08/27 12:44:34;;;;;;;12.13;8.40;;;20.70;99.90;;;;;;4953401;29;20027;-73
2022/08/27 12:47:06;;;;;;;12.45;9.10;;;20.60;99.90;;;;;;4939444;29;20042;-73
2022/08/27 12:49:42;;;;;;;14.30;11.70;;;20.60;99.90;;;;;;4958556;28;20029;-73
2022/08/27 12:52:19;;;;;;;13.95;10.63;;;20.60;99.90;;;;;;4961885;28;20027;-73
2022/08/27 12:55:00;;;;;;;12.15;9.70;;;20.60;99.90;;;;;;4942780;28;20024;-73
2022/08/27 12:57:29;;;;;;;12.45;9.40;;;20.50;99.90;;;;;;4962672;28;20030;-73
2022/08/27 13:00:11;;;;;;;10.20;8.60;;;20.60;99.90;;;;;;4973607;28;20030;-73
2022/08/27 13:03:05;;;;;;;11.63;9.80;;;20.50;99.90;;;;;;4962595;28;20038;-73
2022/08/27 13:05:59;;;;;;;12.13;9.77;;;20.60;99.90;;;;;;4953324;29;20025;-73
2022/08/27 13:08:33;;;;;;;15.32;10.10;;;20.60;99.90;;;;;;4945130;28;20036;-73
2022/08/27 13:11:26;;;;;;;11.10;9.90;;;20.60;99.90;;;;;;4950444;29;20030;-73
2022/08/27 13:14:11;;;;;;;14.10;9.95;;;20.60;99.90;;;;;;4957298;28;20027;-73
2022/08/27 13:16:41;;;;;;;13.88;10.30;;;20.60;99.90;;;;;;4958834;28;20488;-73